createdAt,value
2022-11-22T00:01:13.304Z,0.20
2022-11-22T00:03:39.580Z,0.13
2022-11-22T00:06:05.850Z,0.30
2022-11-22T00:08:33.312Z,0.10
2022-11-22T00:10:59.603Z,0.20
2022-11-22T00:13:25.895Z,0.30
2022-11-22T00:15:59.370Z,0.28
2022-11-22T00:18:25.578Z,0.20
2022-11-22T00:20:51.795Z,0.30
2022-11-22T00:23:18.045Z,0.20
2022-11-22T00:25:44.941Z,0.13
2022-11-22T00:28:11.213Z,0.28
2022-11-22T00:30:37.430Z,0.65
2022-11-22T00:33:03.709Z,0.30
2022-11-22T00:35:29.989Z,0.43
2022-11-22T00:37:59.218Z,0.17
2022-11-22T00:40:25.492Z,0.10
2022-11-22T00:42:51.741Z,0.30
2022-11-22T00:45:18.013Z,0.30
2022-11-22T00:47:44.221Z,0.32
2022-11-22T00:50:11.257Z,0.20
2022-11-22T00:52:37.467Z,0.20
2022-11-22T00:55:03.836Z,0.17
2022-11-22T00:57:30.110Z,0.30
2022-11-22T00:59:56.382Z,0.20
2022-11-22T01:02:22.669Z,0.30
2022-11-22T01:04:48.885Z,0.30
2022-11-22T01:07:15.233Z,0.20
2022-11-22T01:09:41.551Z,0.30
2022-11-22T01:12:07.812Z,0.25
2022-11-22T01:14:34.266Z,0.38
2022-11-22T01:17:00.546Z,0.43
2022-11-22T01:19:26.940Z,0.20
2022-11-22T01:21:53.321Z,0.30
2022-11-22T01:24:19.587Z,0.20
2022-11-22T01:26:45.906Z,0.82
2022-11-22T01:29:12.175Z,0.22
2022-11-22T01:31:38.470Z,0.20
2022-11-22T01:34:05.115Z,0.25
2022-11-22T01:36:31.402Z,0.30
2022-11-22T01:38:57.674Z,0.40
2022-11-22T01:41:23.896Z,0.30
2022-11-22T01:43:50.156Z,0.40
2022-11-22T01:46:36.629Z,0.20
2022-11-22T01:49:04.345Z,0.30
2022-11-22T01:51:41.098Z,0.30
2022-11-22T01:54:12.888Z,0.20
2022-11-22T01:56:40.362Z,0.17
2022-11-22T01:59:09.669Z,0.22
2022-11-22T02:01:36.179Z,0.32
2022-11-22T02:04:03.273Z,0.20
2022-11-22T02:06:39.444Z,0.30
2022-11-22T02:09:14.625Z,0.30
2022-11-22T02:11:48.710Z,0.30
2022-11-22T02:14:18.594Z,0.30
2022-11-22T02:16:45.717Z,0.20
2022-11-22T02:19:23.171Z,0.10
2022-11-22T02:21:54.188Z,0.30
2022-11-22T02:24:23.457Z,0.40
2022-11-22T02:26:49.695Z,0.50
2022-11-22T02:29:16.052Z,0.45
2022-11-22T02:31:43.780Z,0.30
2022-11-22T02:34:10.827Z,0.20
2022-11-22T02:36:39.569Z,0.30
2022-11-22T02:39:07.057Z,0.60
2022-11-22T02:41:33.734Z,0.30
2022-11-22T02:44:00.035Z,0.50
2022-11-22T02:46:26.258Z,0.40
2022-11-22T02:48:52.542Z,0.30
2022-11-22T02:51:19.951Z,0.30
2022-11-22T02:53:47.381Z,0.20
2022-11-22T02:56:14.025Z,0.50
2022-11-22T02:58:40.363Z,0.47
2022-11-22T03:01:06.708Z,0.30
2022-11-22T03:03:33.229Z,0.40
2022-11-22T03:05:59.474Z,0.30
2022-11-22T03:08:25.759Z,0.20
2022-11-22T03:10:52.042Z,0.70
2022-11-22T03:13:18.340Z,0.10
2022-11-22T03:15:47.013Z,0.52
2022-11-22T03:18:13.283Z,0.28
2022-11-22T03:20:39.649Z,0.52
2022-11-22T03:23:05.915Z,0.40
2022-11-22T03:25:32.202Z,0.40
2022-11-22T03:27:59.150Z,0.20
2022-11-22T03:30:25.422Z,0.38
2022-11-22T03:32:51.679Z,0.40
2022-11-22T03:35:17.960Z,0.40
2022-11-22T03:37:44.241Z,0.40
2022-11-22T03:40:10.521Z,0.20
2022-11-22T03:42:36.778Z,0.98
2022-11-22T03:45:03.154Z,0.40
2022-11-22T03:47:29.364Z,0.30
2022-11-22T03:49:55.651Z,0.30
2022-11-22T03:52:21.891Z,0.40
2022-11-22T03:54:48.144Z,0.75
2022-11-22T03:57:15.692Z,0.60
2022-11-22T03:59:41.949Z,0.38
2022-11-22T04:02:08.302Z,0.40
2022-11-22T04:04:34.563Z,0.38
2022-11-22T04:07:00.805Z,0.30
2022-11-22T04:09:27.226Z,0.40
2022-11-22T04:11:53.635Z,0.30
2022-11-22T04:14:38.690Z,0.30
2022-11-22T04:17:04.900Z,0.60
2022-11-22T04:19:31.391Z,0.30
2022-11-22T04:21:57.865Z,0.30
2022-11-22T04:24:42.710Z,0.50
2022-11-22T04:27:08.984Z,0.50
2022-11-22T04:29:35.209Z,0.40
2022-11-22T04:32:19.996Z,0.30
2022-11-22T04:34:47.128Z,0.50
2022-11-22T04:37:13.350Z,0.40
2022-11-22T04:39:39.624Z,0.40
2022-11-22T04:42:31.868Z,0.40
2022-11-22T04:44:58.144Z,0.30
2022-11-22T04:47:46.202Z,0.40
2022-11-22T04:50:35.104Z,0.20
2022-11-22T04:53:01.311Z,0.65
2022-11-22T04:55:27.573Z,0.30
2022-11-22T04:58:00.019Z,0.28
2022-11-22T05:00:27.623Z,0.40
2022-11-22T05:02:53.969Z,0.40
2022-11-22T05:05:20.230Z,0.30
2022-11-22T05:07:46.559Z,0.30
2022-11-22T05:10:12.876Z,0.40
2022-11-22T05:12:40.746Z,0.25
2022-11-22T05:15:07.445Z,0.30
2022-11-22T05:17:33.654Z,0.20
2022-11-22T05:19:59.898Z,1.48
2022-11-22T05:22:48.091Z,0.70
2022-11-22T05:25:14.347Z,0.30
2022-11-22T05:27:40.548Z,0.28
2022-11-22T05:30:07.156Z,0.30
2022-11-22T05:32:33.787Z,0.30
2022-11-22T05:35:00.029Z,0.22
2022-11-22T05:37:26.713Z,0.40
2022-11-22T05:39:52.989Z,0.30
2022-11-22T05:42:19.231Z,0.20
2022-11-22T05:44:45.447Z,0.50
2022-11-22T05:47:12.554Z,0.30
2022-11-22T05:49:38.818Z,0.20
2022-11-22T05:52:05.235Z,0.50
2022-11-22T05:54:31.522Z,0.30
2022-11-22T05:56:57.997Z,0.30
2022-11-22T05:59:24.269Z,0.30
2022-11-22T06:01:50.573Z,0.22
2022-11-22T06:04:16.862Z,0.30
2022-11-22T06:06:43.104Z,0.30
2022-11-22T06:09:09.627Z,0.43
2022-11-22T06:11:36.000Z,0.40
2022-11-22T06:14:03.340Z,0.30
2022-11-22T06:16:29.575Z,0.13
2022-11-22T06:18:55.892Z,0.20
2022-11-22T06:21:23.739Z,0.40
2022-11-22T06:23:50.762Z,0.47
2022-11-22T06:26:19.039Z,0.30
2022-11-22T06:28:45.757Z,0.22
2022-11-22T06:31:15.031Z,0.28
2022-11-22T06:33:41.724Z,0.50
2022-11-22T06:36:14.351Z,0.30
2022-11-22T06:38:41.317Z,0.40
2022-11-22T06:41:08.526Z,0.60
2022-11-22T06:43:35.537Z,0.30
2022-11-22T06:46:02.632Z,0.40
2022-11-22T06:48:29.562Z,0.28
2022-11-22T06:51:28.494Z,0.40
2022-11-22T06:53:55.516Z,0.30
2022-11-22T06:56:22.919Z,0.30
2022-11-22T06:58:50.462Z,0.40
2022-11-22T07:01:18.242Z,0.30
2022-11-22T07:03:44.922Z,0.28
2022-11-22T07:06:12.076Z,0.17
2022-11-22T07:08:38.930Z,0.20
2022-11-22T07:11:09.551Z,0.30
2022-11-22T07:13:36.190Z,0.30
2022-11-22T07:16:03.726Z,0.30
2022-11-22T07:18:30.140Z,0.30
2022-11-22T07:21:06.781Z,0.38
2022-11-22T07:23:36.046Z,0.17
2022-11-22T07:26:02.324Z,0.20
2022-11-22T07:28:28.614Z,0.20
2022-11-22T07:30:58.727Z,0.50
2022-11-22T07:33:24.961Z,0.20
2022-11-22T07:35:52.641Z,0.30
2022-11-22T07:38:18.963Z,0.30
2022-11-22T07:40:45.172Z,0.30
2022-11-22T07:43:11.435Z,0.20
2022-11-22T07:45:37.693Z,0.25
2022-11-22T07:48:04.070Z,0.40
2022-11-22T07:50:30.401Z,0.30
2022-11-22T07:52:59.807Z,0.20
2022-11-22T07:55:26.964Z,0.20
2022-11-22T07:57:53.654Z,0.30
2022-11-22T08:00:20.368Z,0.20
2022-11-22T08:02:46.694Z,0.30
2022-11-22T08:05:12.941Z,0.20
2022-11-22T08:07:39.277Z,0.20
2022-11-22T08:10:05.817Z,0.50
2022-11-22T08:12:32.024Z,0.20
2022-11-22T08:14:58.294Z,0.10
2022-11-22T08:17:24.732Z,0.20
2022-11-22T08:19:53.400Z,0.20
2022-11-22T08:22:19.637Z,0.20
2022-11-22T08:24:45.918Z,0.20
2022-11-22T08:27:15.161Z,0.20
2022-11-22T08:29:41.371Z,0.20
2022-11-22T08:32:07.642Z,0.15
2022-11-22T08:34:38.063Z,0.30
2022-11-22T08:37:04.810Z,0.13
2022-11-22T08:39:31.554Z,0.28
2022-11-22T08:41:57.958Z,0.30
2022-11-22T08:44:24.180Z,0.10
2022-11-22T08:46:50.457Z,0.28
2022-11-22T08:49:16.705Z,0.10
2022-11-22T08:51:44.937Z,0.20
2022-11-22T08:54:11.734Z,0.35
2022-11-22T08:56:38.027Z,0.30
2022-11-22T08:59:04.341Z,0.22
2022-11-22T09:01:30.654Z,0.00
2022-11-22T09:03:56.952Z,0.32
2022-11-22T09:09:35.832Z,0.20
2022-11-22T09:11:55.830Z,0.30
2022-11-22T09:14:22.184Z,0.30
2022-11-22T09:16:48.453Z,0.10
2022-11-22T09:19:14.752Z,0.30
2022-11-22T09:21:41.023Z,0.17
2022-11-22T09:24:07.337Z,0.10
2022-11-22T09:26:33.606Z,0.20
2022-11-22T09:28:59.888Z,0.20
2022-11-22T09:31:26.113Z,0.40
2022-11-22T09:33:52.370Z,0.20
2022-11-22T09:36:20.418Z,0.22
2022-11-22T09:38:46.820Z,0.10
2022-11-22T09:41:13.057Z,0.30
2022-11-22T09:43:57.208Z,0.10
2022-11-22T09:46:32.090Z,0.08
2022-11-22T09:49:05.280Z,0.20
2022-11-22T09:51:39.234Z,0.20
2022-11-22T09:54:08.911Z,0.10
2022-11-22T09:56:35.505Z,0.30
2022-11-22T09:59:06.750Z,0.10
2022-11-22T10:01:41.061Z,0.20
2022-11-22T10:04:13.257Z,0.10
2022-11-22T10:06:43.798Z,0.10
2022-11-22T10:09:19.133Z,0.13
2022-11-22T10:11:45.339Z,0.17
2022-11-22T10:14:22.307Z,0.10
2022-11-22T10:16:52.922Z,0.10
2022-11-22T10:19:28.261Z,0.35
2022-11-22T10:21:54.910Z,0.20
2022-11-22T10:24:21.126Z,0.30
2022-11-22T10:26:47.821Z,0.20
2022-11-22T10:29:27.092Z,0.22
2022-11-22T10:32:07.852Z,0.10
2022-11-22T10:35:00.403Z,0.10
2022-11-22T10:37:51.454Z,0.20
2022-11-22T10:40:29.959Z,0.20
2022-11-22T10:42:56.232Z,0.20
2022-11-22T10:45:34.629Z,0.15
2022-11-22T10:48:30.348Z,0.17
2022-11-22T10:51:18.333Z,0.28
2022-11-22T10:54:03.904Z,0.20
2022-11-22T10:56:33.671Z,0.10
2022-11-22T10:59:15.287Z,0.20
2022-11-22T11:01:41.567Z,0.13
2022-11-22T11:04:07.962Z,0.13
2022-11-22T11:07:04.573Z,0.10
2022-11-22T11:12:34.191Z,0.22
2022-11-22T11:15:03.895Z,0.10
2022-11-22T11:17:32.316Z,0.20
2022-11-22T11:20:00.628Z,0.03
2022-11-22T11:22:58.637Z,0.08
2022-11-22T11:25:33.088Z,0.17
2022-11-22T11:28:03.935Z,0.20
2022-11-22T11:30:37.070Z,0.10
2022-11-22T11:33:09.769Z,0.10
2022-11-22T11:35:36.031Z,0.20
2022-11-22T11:38:02.293Z,0.10
2022-11-22T11:40:29.889Z,0.00
2022-11-22T11:43:14.607Z,0.00
2022-11-22T11:45:40.921Z,0.00
2022-11-22T11:48:26.201Z,0.00
2022-11-22T11:50:53.848Z,0.00
2022-11-22T11:53:25.540Z,0.10
2022-11-22T11:55:53.079Z,0.20
2022-11-22T11:58:20.849Z,0.13
2022-11-22T12:00:47.194Z,0.10
2022-11-22T12:03:15.569Z,0.00
2022-11-22T12:05:41.863Z,0.00
2022-11-22T12:08:28.126Z,0.00
2022-11-22T12:11:09.472Z,0.10
2022-11-22T12:14:04.700Z,0.13
2022-11-22T12:16:34.150Z,0.00
2022-11-22T12:19:24.835Z,0.00
2022-11-22T12:21:59.185Z,0.08
2022-11-22T12:27:12.246Z,0.20
2022-11-22T12:29:39.922Z,0.10
2022-11-22T12:32:18.846Z,0.08
2022-11-22T12:35:00.146Z,0.05
2022-11-22T12:37:29.500Z,0.00
2022-11-22T12:39:56.836Z,0.10
2022-11-22T12:42:29.120Z,0.00
2022-11-22T12:47:23.746Z,0.10
2022-11-22T12:49:59.676Z,0.00
2022-11-22T12:52:25.877Z,0.20
2022-11-22T12:54:58.969Z,0.00
2022-11-22T12:57:43.902Z,0.00
2022-11-22T13:00:10.401Z,0.10
2022-11-22T13:02:58.935Z,0.00
2022-11-22T13:05:28.476Z,0.00
2022-11-22T13:08:03.090Z,0.20
2022-11-22T13:10:32.282Z,0.00
2022-11-22T13:12:59.825Z,0.00
2022-11-22T13:15:27.780Z,0.00
2022-11-22T13:17:54.424Z,0.10
2022-11-22T13:20:22.753Z,0.20
2022-11-22T13:22:57.429Z,0.10
2022-11-22T13:25:39.013Z,0.00
2022-11-22T13:28:22.954Z,0.00
2022-11-22T13:31:07.882Z,0.00
2022-11-22T13:33:35.177Z,0.00
2022-11-22T13:36:20.210Z,0.00
2022-11-22T13:38:46.490Z,0.00
2022-11-22T13:41:24.675Z,0.00
2022-11-22T13:43:54.102Z,0.00
2022-11-22T13:46:49.125Z,0.00
2022-11-22T13:49:49.403Z,0.00
2022-11-22T13:52:15.805Z,0.10
2022-11-22T13:54:47.888Z,0.00
2022-11-22T13:59:40.514Z,0.00
2022-11-22T14:02:21.328Z,0.00
2022-11-22T14:04:52.834Z,0.00
2022-11-22T14:07:26.227Z,0.00
2022-11-22T14:09:52.511Z,0.10
2022-11-22T14:12:37.533Z,0.00
2022-11-22T14:15:13.182Z,0.00
2022-11-22T14:17:45.303Z,0.00
2022-11-22T14:20:17.554Z,0.00
2022-11-22T14:25:21.824Z,0.00
2022-11-22T14:27:53.375Z,0.05
2022-11-22T14:30:20.546Z,0.10
2022-11-22T14:33:03.379Z,0.00
2022-11-22T14:35:30.317Z,0.00
2022-11-22T14:37:58.738Z,0.00
2022-11-22T14:40:38.262Z,0.00
2022-11-22T14:43:23.254Z,0.00
2022-11-22T14:45:50.892Z,0.00
2022-11-22T14:48:19.224Z,0.05
2022-11-22T14:50:48.595Z,0.00
2022-11-22T14:53:27.133Z,0.00
2022-11-22T14:56:02.534Z,0.00
2022-11-22T14:58:29.665Z,0.00
2022-11-22T15:00:59.004Z,0.00
2022-11-22T15:03:44.092Z,0.00
2022-11-22T15:09:16.278Z,0.00
2022-11-22T15:09:21.749Z,0.00
2022-11-22T15:11:59.153Z,0.00
2022-11-22T15:14:43.776Z,0.10
2022-11-22T15:57:26.562Z,0.00
2022-11-22T15:59:53.677Z,0.05
2022-11-22T16:02:21.075Z,0.00
2022-11-22T16:06:04.696Z,0.00
2022-11-22T16:07:48.851Z,0.10
2022-11-22T16:10:21.455Z,0.00
2022-11-22T16:12:47.825Z,0.00
2022-11-22T16:15:36.280Z,0.15
2022-11-22T16:18:14.163Z,0.15
2022-11-22T16:20:41.386Z,0.00
2022-11-22T16:23:10.691Z,0.00
2022-11-22T16:25:38.337Z,0.00
2022-11-22T16:28:19.691Z,0.10
2022-11-22T16:30:46.377Z,0.00
2022-11-22T16:33:12.663Z,0.00
2022-11-22T16:35:39.452Z,0.00
2022-11-22T16:38:07.453Z,0.00
2022-11-22T16:40:40.901Z,0.00
2022-11-22T16:43:13.647Z,0.00
2022-11-22T16:45:40.636Z,0.00
2022-11-22T16:48:30.703Z,0.00
2022-11-22T16:50:59.363Z,0.00
2022-11-22T16:53:26.859Z,0.10
2022-11-22T16:55:53.093Z,0.00
2022-11-22T16:58:21.613Z,0.00
2022-11-22T17:00:48.377Z,0.00
2022-11-22T17:03:16.612Z,0.00
2022-11-22T17:05:42.873Z,0.00
2022-11-22T17:08:10.575Z,0.00
2022-11-22T17:10:37.920Z,0.00
2022-11-22T17:13:04.538Z,0.00
2022-11-22T17:15:31.445Z,0.05
2022-11-22T17:17:57.670Z,0.00
2022-11-22T17:20:23.889Z,0.08
2022-11-22T17:22:50.130Z,0.10
2022-11-22T17:25:16.394Z,0.00
2022-11-22T17:27:42.599Z,0.00
2022-11-22T17:30:09.279Z,0.00
2022-11-22T17:32:37.082Z,0.00
2022-11-22T17:35:03.951Z,0.00
2022-11-22T17:37:30.221Z,0.00
2022-11-22T17:39:56.457Z,0.00
2022-11-22T17:42:24.031Z,0.00
2022-11-22T17:44:50.236Z,0.00
2022-11-22T17:47:16.453Z,0.00
2022-11-22T17:49:42.694Z,0.00
2022-11-22T17:52:09.056Z,0.00
2022-11-22T17:54:35.339Z,0.00
2022-11-22T17:57:01.574Z,0.00
2022-11-22T17:59:27.871Z,0.00
2022-11-22T18:01:54.310Z,0.00
2022-11-22T18:04:20.570Z,0.00
2022-11-22T18:06:46.919Z,0.00
2022-11-22T18:09:13.179Z,0.10
2022-11-22T18:11:39.419Z,0.00
2022-11-22T18:14:05.744Z,0.00
2022-11-22T18:16:31.980Z,0.10
2022-11-22T18:18:59.146Z,0.10
2022-11-22T18:21:26.545Z,0.00
2022-11-22T18:23:52.867Z,0.00
2022-11-22T18:31:52.904Z,0.00
2022-11-22T18:34:19.876Z,0.00
2022-11-22T18:37:03.858Z,0.00
2022-11-22T18:39:32.372Z,0.00
2022-11-22T18:41:59.022Z,0.03
2022-11-22T18:44:25.441Z,0.10
2022-11-22T18:46:51.746Z,0.03
2022-11-22T18:49:18.354Z,0.00
2022-11-22T18:51:44.630Z,0.10
2022-11-22T18:54:11.187Z,0.08
2022-11-22T18:56:39.959Z,0.10
2022-11-22T18:59:07.429Z,0.00
2022-11-22T19:01:37.134Z,0.00
2022-11-22T19:04:03.766Z,0.03
2022-11-22T19:06:30.512Z,0.00
2022-11-22T19:08:56.849Z,0.10
2022-11-22T19:11:23.318Z,0.00
2022-11-22T19:13:49.618Z,0.10
2022-11-22T19:16:17.916Z,0.10
2022-11-22T19:18:44.345Z,0.20
2022-11-22T19:21:17.996Z,0.03
2022-11-22T19:23:44.639Z,0.10
2022-11-22T19:26:12.044Z,0.10
2022-11-22T19:28:38.325Z,0.10
2022-11-22T19:31:07.684Z,0.10
2022-11-22T19:33:34.217Z,0.10
2022-11-22T19:36:01.447Z,0.10
2022-11-22T19:38:28.171Z,0.00
2022-11-22T19:40:54.950Z,0.28
2022-11-22T19:43:21.609Z,0.08
2022-11-22T19:45:48.042Z,0.05
2022-11-22T19:48:14.875Z,0.10
2022-11-22T19:50:41.533Z,0.08
2022-11-22T19:53:08.845Z,0.10
2022-11-22T19:55:35.822Z,0.10
2022-11-22T19:58:02.057Z,0.17
2022-11-22T20:00:28.409Z,0.10
2022-11-22T20:02:54.866Z,0.08
2022-11-22T20:05:21.153Z,0.00
2022-11-22T20:07:47.477Z,0.10
2022-11-22T20:10:13.917Z,0.20
2022-11-22T20:12:40.333Z,0.10
2022-11-22T20:15:06.817Z,0.10
2022-11-22T20:17:36.381Z,0.10
2022-11-22T20:20:07.095Z,0.10
2022-11-22T20:22:33.850Z,0.10
2022-11-22T20:25:00.180Z,0.20
2022-11-22T20:27:26.898Z,0.20
2022-11-22T20:29:53.243Z,0.10
2022-11-22T20:32:26.721Z,0.30
2022-11-22T20:34:53.017Z,0.10
2022-11-22T20:37:19.326Z,0.10
2022-11-22T20:39:45.676Z,0.30
2022-11-22T20:42:33.653Z,0.20
2022-11-22T20:44:58.136Z,0.30
2022-11-22T20:47:24.476Z,0.30
2022-11-22T20:49:50.750Z,0.20
2022-11-22T20:52:17.010Z,0.20
2022-11-22T20:54:43.280Z,0.30
2022-11-22T20:57:09.498Z,0.17
2022-11-22T20:59:35.708Z,0.20
2022-11-22T21:02:04.025Z,0.30
2022-11-22T21:04:34.145Z,0.40
2022-11-22T21:07:00.417Z,0.43
2022-11-22T21:09:27.706Z,0.40
2022-11-22T21:11:53.929Z,0.40
2022-11-22T21:14:20.827Z,0.20
2022-11-22T21:16:54.176Z,0.25
2022-11-22T21:19:20.486Z,0.20
2022-11-22T21:21:46.680Z,0.40
2022-11-22T21:24:13.785Z,0.15
2022-11-22T21:26:40.612Z,0.20
2022-11-22T21:29:15.920Z,0.20
2022-11-22T21:31:42.853Z,0.30
2022-11-22T21:34:09.123Z,0.15
2022-11-22T21:36:35.376Z,0.20
2022-11-22T21:39:01.661Z,0.20
2022-11-22T21:41:43.299Z,0.32
2022-11-22T21:44:10.447Z,0.40
2022-11-22T21:46:36.918Z,0.25
2022-11-22T21:49:03.158Z,0.20
2022-11-22T21:51:29.557Z,0.20
2022-11-22T21:53:57.126Z,0.20
2022-11-22T21:56:23.470Z,0.17
2022-11-22T21:58:49.769Z,0.28
2022-11-22T22:01:16.098Z,0.25
2022-11-22T22:03:42.413Z,0.30
2022-11-22T22:06:08.779Z,0.20
2022-11-22T22:08:35.180Z,0.30
2022-11-22T22:11:03.959Z,0.30
2022-11-22T22:13:30.866Z,0.25
2022-11-22T22:15:58.187Z,0.25
2022-11-22T22:18:29.019Z,0.28
2022-11-22T22:20:59.725Z,0.40
2022-11-22T22:23:26.095Z,0.15
2022-11-22T22:25:56.695Z,0.20
2022-11-22T22:28:24.022Z,0.30
2022-11-22T22:30:50.267Z,0.17
2022-11-22T22:33:16.476Z,0.17
2022-11-22T22:35:42.686Z,0.28
2022-11-22T22:38:08.969Z,0.40
2022-11-22T22:40:35.231Z,0.30
2022-11-22T22:43:01.526Z,0.20
2022-11-22T22:45:27.803Z,0.13
2022-11-22T22:47:54.053Z,0.22
2022-11-22T22:50:21.457Z,0.22
2022-11-22T22:52:47.723Z,0.30
2022-11-22T22:55:14.078Z,0.35
2022-11-22T22:57:40.397Z,0.40
2022-11-22T23:00:07.652Z,0.25
2022-11-22T23:02:33.885Z,0.13
2022-11-22T23:05:00.159Z,0.25
2022-11-22T23:07:26.403Z,0.10
2022-11-22T23:09:52.696Z,0.20
2022-11-22T23:12:18.974Z,0.40
2022-11-22T23:14:45.273Z,0.22
2022-11-22T23:17:11.639Z,0.25
2022-11-22T23:19:37.956Z,0.13
2022-11-22T23:22:04.669Z,0.30
2022-11-22T23:24:31.794Z,0.38
2022-11-22T23:26:58.052Z,0.20
2022-11-22T23:29:24.334Z,0.20
2022-11-22T23:31:50.589Z,0.50
2022-11-22T23:34:16.949Z,0.20
2022-11-22T23:36:43.239Z,0.35
2022-11-22T23:39:09.561Z,0.30
2022-11-22T23:41:35.819Z,0.20
2022-11-22T23:44:02.097Z,0.32
2022-11-22T23:46:28.936Z,0.20
2022-11-22T23:48:56.245Z,0.30
2022-11-22T23:51:22.968Z,0.30
2022-11-22T23:53:53.145Z,0.30
2022-11-22T23:56:22.004Z,0.32
2022-11-22T23:58:48.515Z,0.30
